Monday, November 19, 2018, 12:53 AM MST
Back to Local

KSLC, Salt Lake City International Airport

Location: Salt Lake City, UT, United States Lat: 40.783
Local Time: 12:53 AM MST ( 7:53 GMT) Lon: -111.967
Time Zone: US/Mountain Elev: 4225 ft

Show me the last for .
Show Decoded

2018-11-18 23:54 METAR KSLC 190654Z 25003KT 10SM CLR M03/M06 A3029 RMK AO2 SLP268 T10281056
                 400721044 =
2018-11-18 22:54 METAR KSLC 190554Z 19003KT 10SM CLR M02/M07 A3029 RMK AO2 SLP266 T10171072 10039
                 21017 51004 =
2018-11-18 21:54 METAR KSLC 190454Z 17003KT 10SM FEW230 M01/M07 A3029 RMK AO2 SLP270 T10111067 =
2018-11-18 20:54 METAR KSLC 190354Z 21003KT 10SM FEW230 M01/M05 A3028 RMK AO2 SLP269 T10061050 =
2018-11-18 19:54 METAR KSLC 190254Z 00000KT 10SM FEW230 01/M05 A3027 RMK AO2 SLP271 T00061050
                 53002 =
2018-11-18 18:54 METAR KSLC 190154Z 28003KT 10SM FEW100 SCT230 02/M05 A3026 RMK AO2 SLP265
                 T00171050 =
2018-11-18 17:54 METAR KSLC 190054Z 36006KT 10SM FEW180 SCT230 02/M04 A3026 RMK AO2 SLP266
                 T00171044 =
2018-11-18 16:54 METAR KSLC 182354Z 35006KT 10SM FEW180 BKN230 04/M06 A3027 RMK AO2 SLP263
                 T00391056 10072 20033 55006 =
2018-11-18 15:54 METAR KSLC 182254Z 35003KT 10SM FEW140 BKN230 06/M06 A3027 RMK AO2 SLP257
                 T00611061 =
2018-11-18 14:54 METAR KSLC 182154Z 33005KT 10SM BKN230 07/M08 A3028 RMK AO2 SLP250 T00671078 =
2018-11-18 13:54 METAR KSLC 182054Z 32005KT 10SM BKN230 07/M07 A3029 RMK AO2 SLP255 T00671067
                 56014 =
2018-11-18 12:54 METAR KSLC 181954Z 00000KT 10SM BKN250 05/M06 A3030 RMK AO2 SLP269 T00501056 =
2018-11-18 11:54 METAR KSLC 181854Z 00000KT 10SM SCT250 04/M04 A3032 RMK AO2 SLP278 T00441039 =
2018-11-18 10:54 METAR KSLC 181754Z 17007KT 10SM FEW040 SCT250 03/M04 A3033 RMK AO2 SLP283
                 T00331039 10033 21044 50004 =
2018-11-18 09:54 METAR KSLC 181654Z 12004KT 10SM FEW040 SCT250 01/M06 A3034 RMK AO2 SLP286
                 T00111061 =
2018-11-18 08:54 METAR KSLC 181554Z 15005KT 10SM FEW040 FEW250 M01/M05 A3034 RMK AO2 SLP286
                 T10111050 =
2018-11-18 07:54 METAR KSLC 181454Z 15008KT 10SM FEW030 M04/M06 A3032 RMK AO2 SLP283 T10391056
                 51007 =
2018-11-18 06:54 METAR KSLC 181354Z 14005KT 10SM FEW040 M04/M06 A3032 RMK AO2 SLP281 T10391056 =
2018-11-18 05:54 METAR KSLC 181254Z 16004KT 10SM CLR M04/M06 A3031 RMK AO2 SLP278 T10391056 =
2018-11-18 04:54 METAR KSLC 181154Z 12004KT 10SM CLR M04/M06 A3030 RMK AO2 SLP271 70001 T10391056
                 11011 21039 50004 =
2018-11-18 03:54 METAR KSLC 181054Z 00000KT 10SM CLR M03/M05 A3030 RMK AO2 SLP269 T10331050 =
2018-11-18 02:54 METAR KSLC 180954Z 00000KT 10SM CLR M03/M05 A3029 RMK AO2 SLP267 T10281050 =
2018-11-18 01:54 METAR KSLC 180854Z 00000KT 10SM CLR M03/M06 A3028 RMK AO2 SLP263 T10281056 52008
                 =
2018-11-18 00:54 METAR KSLC 180754Z 27003KT 10SM CLR M02/M06 A3027 RMK AO2 SLP261 T10221061 =

Support USWX by starting your Amazon purchase here.